createdAt,value
2018-04-10T00:00:07.470Z,13.03
2018-04-10T00:02:36.373Z,13.03
2018-04-10T00:05:05.560Z,12.97
2018-04-10T00:07:34.982Z,12.99
2018-04-10T00:10:09.060Z,13.02
2018-04-10T00:12:39.213Z,13.01
2018-04-10T00:15:07.617Z,12.89
2018-04-10T00:17:37.468Z,12.79
2018-04-10T00:20:06.218Z,12.83
2018-04-10T00:22:34.801Z,12.74
2018-04-10T00:25:03.145Z,12.76
2018-04-10T00:27:31.475Z,12.69
2018-04-10T00:30:00.465Z,12.63
2018-04-10T00:32:29.142Z,12.81
2018-04-10T00:34:57.845Z,12.80
2018-04-10T00:37:26.585Z,12.83
2018-04-10T00:39:54.929Z,12.91
2018-04-10T00:42:23.565Z,12.94
2018-04-10T00:44:51.827Z,12.91
2018-04-10T00:47:20.333Z,12.84
2018-04-10T00:49:52.641Z,12.82
2018-04-10T00:52:21.381Z,12.92
2018-04-10T00:54:49.816Z,13.13
2018-04-10T00:57:18.237Z,13.09
2018-04-10T00:59:47.139Z,13.18
2018-04-10T01:02:15.981Z,13.13
2018-04-10T01:04:44.333Z,13.13
2018-04-10T01:07:13.137Z,13.24
2018-04-10T01:09:42.005Z,13.23
2018-04-10T01:12:10.790Z,13.28
2018-04-10T01:14:39.569Z,13.29
2018-04-10T01:17:08.382Z,13.25
2018-04-10T01:19:37.501Z,13.12
2018-04-10T01:22:05.987Z,13.06
2018-04-10T01:24:34.617Z,13.10
2018-04-10T01:27:03.538Z,13.04
2018-04-10T01:29:33.150Z,13.02
2018-04-10T01:32:03.035Z,13.03
2018-04-10T01:34:31.293Z,13.06
2018-04-10T01:37:00.432Z,12.98
2018-04-10T01:39:29.086Z,13.00
2018-04-10T01:41:57.783Z,12.93
2018-04-10T01:44:26.312Z,13.06
2018-04-10T01:46:55.207Z,12.99
2018-04-10T01:49:23.909Z,13.01
2018-04-10T01:51:54.019Z,13.10
2018-04-10T01:54:22.536Z,13.01
2018-04-10T01:56:50.809Z,12.91
2018-04-10T01:59:19.365Z,12.95
2018-04-10T02:01:48.025Z,13.03
2018-04-10T02:04:16.485Z,12.96
2018-04-10T02:06:45.006Z,12.90
2018-04-10T02:09:14.330Z,12.92
2018-04-10T02:11:42.950Z,12.90
2018-04-10T02:14:11.303Z,12.81
2018-04-10T02:16:40.021Z,12.82
2018-04-10T02:19:08.985Z,13.08
2018-04-10T02:21:37.369Z,13.03
2018-04-10T02:24:06.069Z,13.07
2018-04-10T02:26:35.068Z,12.93
2018-04-10T02:29:03.721Z,13.10
2018-04-10T02:31:32.317Z,13.08
2018-04-10T02:34:01.550Z,13.01
2018-04-10T02:36:33.171Z,12.97
2018-04-10T02:39:02.046Z,13.14
2018-04-10T02:41:31.165Z,13.15
2018-04-10T02:44:00.371Z,13.05
2018-04-10T02:46:29.888Z,12.87
2018-04-10T02:48:59.364Z,13.14
2018-04-10T02:51:28.435Z,12.96
2018-04-10T02:53:57.649Z,12.87
2018-04-10T02:56:26.830Z,12.95
2018-04-10T02:58:56.366Z,13.05
2018-04-10T03:01:25.261Z,12.87
2018-04-10T03:03:54.165Z,12.82
2018-04-10T03:06:23.091Z,12.82
2018-04-10T03:08:52.073Z,12.81
2018-04-10T03:11:21.433Z,12.73
2018-04-10T03:13:51.166Z,12.83
2018-04-10T03:16:19.969Z,12.72
2018-04-10T03:18:48.739Z,12.69
2018-04-10T03:21:17.318Z,12.65
2018-04-10T03:23:46.275Z,12.63
2018-04-10T03:26:15.270Z,12.57
2018-04-10T03:28:44.881Z,12.50
2018-04-10T03:31:13.823Z,12.37
2018-04-10T03:33:43.046Z,12.35
2018-04-10T03:36:12.107Z,12.31
2018-04-10T03:38:41.035Z,12.28
2018-04-10T03:41:10.111Z,12.40
2018-04-10T03:43:38.614Z,12.57
2018-04-10T03:46:07.610Z,12.53
2018-04-10T03:48:36.778Z,12.40
2018-04-10T03:51:05.383Z,12.38
2018-04-10T03:53:33.742Z,12.56
2018-04-10T03:56:02.595Z,12.50
2018-04-10T03:58:31.370Z,12.46
2018-04-10T04:03:55.874Z,12.50
2018-04-10T04:06:24.272Z,12.34
2018-04-10T04:08:52.951Z,12.29
2018-04-10T04:11:21.535Z,12.33
2018-04-10T04:13:50.222Z,12.43
2018-04-10T04:16:27.605Z,12.33
2018-04-10T04:21:10.376Z,12.34
2018-04-10T04:23:38.726Z,12.19
2018-04-10T04:26:07.320Z,12.26
2018-04-10T04:28:36.143Z,12.20
2018-04-10T04:31:04.654Z,12.24
2018-04-10T04:33:33.458Z,12.19
2018-04-10T04:36:02.437Z,12.18
2018-04-10T04:38:31.737Z,12.13
2018-04-10T04:41:00.635Z,12.35
2018-04-10T04:43:29.085Z,12.39
2018-04-10T04:45:57.829Z,12.41
2018-04-10T04:48:26.605Z,12.33
2018-04-10T04:50:55.757Z,12.41
2018-04-10T04:53:24.703Z,12.42
2018-04-10T04:55:53.632Z,12.36
2018-04-10T04:58:22.924Z,12.49
2018-04-10T05:00:51.770Z,12.41
2018-04-10T05:03:21.805Z,12.55
2018-04-10T05:05:51.630Z,12.58
2018-04-10T05:08:22.443Z,12.63
2018-04-10T05:10:51.314Z,12.72
2018-04-10T05:13:20.027Z,12.82
2018-04-10T05:15:50.288Z,12.66
2018-04-10T05:18:20.599Z,12.77
2018-04-10T05:20:51.485Z,12.83
2018-04-10T05:23:22.726Z,12.76
2018-04-10T05:25:52.980Z,12.82
2018-04-10T05:28:22.870Z,12.82
2018-04-10T05:30:51.605Z,12.93
2018-04-10T05:33:21.397Z,12.95
2018-04-10T05:35:50.429Z,13.01
2018-04-10T05:38:19.473Z,13.12
2018-04-10T05:40:48.641Z,13.10
2018-04-10T05:43:19.773Z,13.29
2018-04-10T05:45:49.641Z,13.24
2018-04-10T05:48:18.800Z,13.31
2018-04-10T05:50:48.157Z,13.36
2018-04-10T05:53:16.642Z,13.41
2018-04-10T05:55:45.635Z,13.55
2018-04-10T05:58:14.617Z,13.65
2018-04-10T06:00:43.717Z,13.67
2018-04-10T06:03:12.367Z,13.75
2018-04-10T06:05:40.750Z,13.71
2018-04-10T06:08:10.300Z,13.86
2018-04-10T06:10:39.357Z,13.96
2018-04-10T06:13:07.663Z,14.10
2018-04-10T06:15:36.702Z,14.06
2018-04-10T06:18:05.747Z,14.26
2018-04-10T06:20:34.285Z,14.39
2018-04-10T06:23:03.374Z,14.38
2018-04-10T06:25:32.346Z,14.46
2018-04-10T06:28:00.885Z,14.53
2018-04-10T06:30:29.614Z,14.67
2018-04-10T06:32:58.626Z,14.71
2018-04-10T06:35:27.114Z,14.76
2018-04-10T06:37:56.146Z,14.79
2018-04-10T06:40:24.762Z,14.99
2018-04-10T06:42:53.061Z,15.15
2018-04-10T06:45:21.480Z,15.21
2018-04-10T06:47:49.993Z,15.18
2018-04-10T06:50:18.680Z,15.33
2018-04-10T06:52:47.030Z,15.51
2018-04-10T06:55:16.010Z,15.39
2018-04-10T06:57:44.653Z,15.51
2018-04-10T07:00:13.441Z,15.84
2018-04-10T07:02:42.406Z,16.00
2018-04-10T07:05:11.277Z,15.58
2018-04-10T07:07:39.987Z,15.97
2018-04-10T07:10:08.563Z,16.08
2018-04-10T07:12:36.978Z,16.01
2018-04-10T07:15:05.807Z,16.24
2018-04-10T07:17:34.594Z,16.38
2018-04-10T07:20:03.114Z,16.22
2018-04-10T07:22:31.584Z,16.45
2018-04-10T07:25:00.082Z,16.37
2018-04-10T07:27:28.713Z,16.73
2018-04-10T07:29:57.590Z,16.77
2018-04-10T07:32:26.543Z,16.74
2018-04-10T07:34:55.423Z,17.09
2018-04-10T07:37:23.867Z,16.90
2018-04-10T07:39:52.545Z,16.88
2018-04-10T07:42:20.971Z,16.99
2018-04-10T07:44:49.294Z,17.04
2018-04-10T07:47:17.618Z,17.41
2018-04-10T07:49:45.961Z,17.58
2018-04-10T07:52:14.674Z,17.65
2018-04-10T07:54:43.204Z,17.41
2018-04-10T07:57:11.958Z,17.30
2018-04-10T07:59:40.569Z,17.75
2018-04-10T08:02:09.262Z,17.65
2018-04-10T08:04:38.463Z,18.08
2018-04-10T08:07:07.073Z,18.21
2018-04-10T08:09:35.679Z,18.26
2018-04-10T08:12:04.519Z,18.39
2018-04-10T08:14:33.351Z,18.36
2018-04-10T08:17:02.204Z,18.45
2018-04-10T08:19:30.851Z,18.68
2018-04-10T08:21:59.626Z,18.67
2018-04-10T08:24:28.602Z,18.59
2018-04-10T08:26:57.530Z,18.83
2018-04-10T08:29:25.778Z,18.63
2018-04-10T08:31:54.268Z,18.79
2018-04-10T08:34:22.824Z,18.97
2018-04-10T08:36:51.166Z,18.95
2018-04-10T08:39:19.775Z,19.28
2018-04-10T08:41:48.065Z,19.57
2018-04-10T08:44:16.618Z,19.39
2018-04-10T08:46:45.658Z,19.58
2018-04-10T08:49:14.066Z,19.33
2018-04-10T08:51:42.521Z,19.52
2018-04-10T08:54:11.266Z,19.74
2018-04-10T08:56:39.970Z,19.46
2018-04-10T08:59:10.592Z,19.48
2018-04-10T09:01:39.736Z,20.04
2018-04-10T09:04:08.462Z,19.61
2018-04-10T09:06:37.240Z,19.35
2018-04-10T09:09:06.975Z,19.63
2018-04-10T09:11:35.345Z,20.19
2018-04-10T09:14:04.342Z,20.08
2018-04-10T09:16:32.682Z,20.10
2018-04-10T09:19:01.345Z,20.11
2018-04-10T09:21:29.740Z,20.40
2018-04-10T09:23:58.435Z,20.73
2018-04-10T09:26:27.174Z,20.68
2018-04-10T09:28:55.765Z,21.01
2018-04-10T09:31:24.346Z,20.62
2018-04-10T09:33:53.293Z,21.05
2018-04-10T09:36:23.153Z,21.37
2018-04-10T09:38:51.694Z,21.24
2018-04-10T09:41:20.239Z,21.06
2018-04-10T09:43:48.831Z,21.42
2018-04-10T09:46:17.778Z,21.43
2018-04-10T09:48:46.440Z,21.39
2018-04-10T09:51:14.784Z,21.22
2018-04-10T09:53:43.393Z,21.39
2018-04-10T09:56:12.039Z,21.37
2018-04-10T09:58:40.738Z,21.88
2018-04-10T10:01:09.181Z,21.83
2018-04-10T10:03:37.974Z,21.87
2018-04-10T10:06:06.310Z,22.06
2018-04-10T10:08:35.369Z,21.97
2018-04-10T10:11:03.862Z,21.84
2018-04-10T10:13:32.507Z,21.66
2018-04-10T10:16:00.863Z,22.02
2018-04-10T10:18:29.233Z,22.03
2018-04-10T10:20:59.238Z,22.45
2018-04-10T10:23:28.127Z,22.36
2018-04-10T10:25:56.644Z,22.98
2018-04-10T10:28:25.521Z,23.19
2018-04-10T10:30:53.996Z,23.14
2018-04-10T10:33:22.395Z,22.79
2018-04-10T10:35:51.154Z,23.35
2018-04-10T10:38:19.918Z,23.49
2018-04-10T10:40:48.654Z,23.89
2018-04-10T10:43:17.172Z,23.34
2018-04-10T10:45:45.971Z,24.05
2018-04-10T10:48:14.528Z,23.51
2018-04-10T10:50:43.015Z,24.04
2018-04-10T10:53:11.568Z,24.44
2018-04-10T10:55:40.321Z,24.48
2018-04-10T10:58:08.878Z,24.79
2018-04-10T11:00:37.431Z,24.94
2018-04-10T11:03:07.042Z,24.87
2018-04-10T11:05:35.337Z,25.49
2018-04-10T11:08:03.854Z,25.80
2018-04-10T11:10:35.605Z,26.37
2018-04-10T11:13:04.119Z,26.45
2018-04-10T11:15:32.489Z,26.11
2018-04-10T11:18:01.278Z,24.92
2018-04-10T11:20:29.998Z,26.42
2018-04-10T11:22:58.659Z,26.64
2018-04-10T11:25:27.026Z,26.66
2018-04-10T11:27:55.742Z,26.48
2018-04-10T11:30:24.218Z,26.99
2018-04-10T11:32:53.281Z,27.07
2018-04-10T11:35:21.826Z,26.66
2018-04-10T11:37:50.641Z,28.25
2018-04-10T11:40:19.055Z,27.38
2018-04-10T11:42:47.842Z,27.60
2018-04-10T11:45:16.634Z,27.12
2018-04-10T11:47:45.425Z,27.44
2018-04-10T11:50:13.802Z,26.75
2018-04-10T11:52:42.227Z,28.59
2018-04-10T11:55:10.879Z,28.68
2018-04-10T11:57:39.495Z,28.26
2018-04-10T12:00:08.279Z,28.55
2018-04-10T12:02:37.150Z,28.57
2018-04-10T12:05:06.078Z,29.63
2018-04-10T12:07:34.770Z,29.42
2018-04-10T12:10:03.661Z,28.85
2018-04-10T12:12:32.566Z,29.61
2018-04-10T12:15:01.437Z,30.25
2018-04-10T12:17:30.198Z,30.98
2018-04-10T12:19:58.835Z,28.83
2018-04-10T12:22:27.663Z,32.05
2018-04-10T12:24:56.016Z,31.23
2018-04-10T12:27:24.807Z,30.40
2018-04-10T12:29:53.321Z,32.48
2018-04-10T12:32:22.101Z,31.51
2018-04-10T12:34:50.425Z,31.54
2018-04-10T12:37:19.396Z,31.80
2018-04-10T12:39:48.241Z,30.81
2018-04-10T12:42:16.733Z,31.89
2018-04-10T12:44:45.254Z,31.54
2018-04-10T12:47:14.004Z,31.96
2018-04-10T12:49:42.261Z,31.14
2018-04-10T12:52:10.756Z,31.23
2018-04-10T12:54:39.385Z,32.41
2018-04-10T12:57:07.709Z,31.82
2018-04-10T12:59:36.083Z,31.37
2018-04-10T13:02:04.550Z,33.57
2018-04-10T13:04:33.506Z,34.57
2018-04-10T13:07:01.902Z,33.90
2018-04-10T13:09:30.288Z,32.28
2018-04-10T13:11:58.774Z,32.95
2018-04-10T13:14:27.467Z,31.79
2018-04-10T13:16:55.893Z,33.85
2018-04-10T13:19:24.766Z,32.91
2018-04-10T13:21:53.465Z,33.23
2018-04-10T13:24:21.905Z,32.89
2018-04-10T13:26:50.729Z,32.19
2018-04-10T13:29:19.209Z,33.34
2018-04-10T13:31:47.662Z,33.89
2018-04-10T13:34:16.028Z,32.89
2018-04-10T13:36:44.359Z,30.74
2018-04-10T13:39:13.090Z,31.84
2018-04-10T13:41:41.600Z,32.19
2018-04-10T13:44:10.866Z,31.53
2018-04-10T13:46:39.685Z,32.41
2018-04-10T13:49:08.755Z,33.85
2018-04-10T13:51:37.545Z,33.23
2018-04-10T13:54:06.278Z,30.60
2018-04-10T13:56:34.989Z,29.88
2018-04-10T13:59:03.732Z,31.26
2018-04-10T14:01:32.153Z,31.90
2018-04-10T14:04:00.519Z,29.68
2018-04-10T14:06:28.854Z,31.45
2018-04-10T14:08:57.150Z,31.01
2018-04-10T14:11:25.449Z,30.79
2018-04-10T14:13:54.521Z,30.08
2018-04-10T14:16:23.254Z,31.61
2018-04-10T14:20:06.046Z,32.71
2018-04-10T14:22:34.369Z,27.10
2018-04-10T14:25:02.877Z,27.37
2018-04-10T14:27:31.630Z,26.85
2018-04-10T14:30:00.707Z,26.95
2018-04-10T14:32:29.376Z,25.68
2018-04-10T14:34:58.118Z,26.61
2018-04-10T14:37:26.674Z,26.97
2018-04-10T14:39:55.006Z,26.17
2018-04-10T14:42:23.888Z,26.10
2018-04-10T14:44:53.026Z,25.80
2018-04-10T14:47:21.799Z,25.48
2018-04-10T14:49:50.226Z,26.07
2018-04-10T14:52:18.558Z,26.25
2018-04-10T14:54:47.181Z,25.58
2018-04-10T14:57:15.693Z,25.35
2018-04-10T14:59:44.382Z,25.24
2018-04-10T15:02:13.037Z,25.00
2018-04-10T15:04:41.517Z,24.98
2018-04-10T15:07:09.913Z,24.94
2018-04-10T15:09:38.682Z,25.31
2018-04-10T15:12:07.317Z,25.61
2018-04-10T15:14:36.436Z,25.94
2018-04-10T15:17:05.267Z,25.80
2018-04-10T15:19:33.816Z,26.04
2018-04-10T15:22:02.132Z,26.24
2018-04-10T15:24:30.750Z,25.91
2018-04-10T15:26:59.514Z,25.49
2018-04-10T15:29:27.774Z,25.26
2018-04-10T15:31:56.533Z,25.00
2018-04-10T15:34:25.286Z,24.94
2018-04-10T15:36:53.781Z,25.12
2018-04-10T15:39:22.317Z,24.99
2018-04-10T15:41:51.080Z,24.81
2018-04-10T15:44:20.225Z,24.73
2018-04-10T15:46:48.594Z,24.67
2018-04-10T15:49:16.998Z,24.38
2018-04-10T15:51:45.374Z,24.27
2018-04-10T15:54:14.213Z,24.20
2018-04-10T15:56:42.782Z,24.33
2018-04-10T15:59:12.599Z,24.16
2018-04-10T16:01:41.142Z,24.00
2018-04-10T16:04:11.442Z,23.96
2018-04-10T16:06:41.875Z,23.96
2018-04-10T16:09:10.428Z,24.00
2018-04-10T16:11:38.778Z,23.99
2018-04-10T16:14:07.089Z,24.20
2018-04-10T16:16:35.896Z,24.20
2018-04-10T16:19:04.759Z,24.20
2018-04-10T16:21:33.418Z,24.15
2018-04-10T16:24:02.064Z,24.21
2018-04-10T16:26:30.474Z,24.19
2018-04-10T16:28:58.979Z,24.16
2018-04-10T16:31:27.823Z,24.11
2018-04-10T16:33:56.586Z,24.02
2018-04-10T16:36:25.042Z,23.95
2018-04-10T16:38:53.561Z,23.89
2018-04-10T16:41:22.009Z,23.86
2018-04-10T16:43:50.986Z,23.76
2018-04-10T16:46:19.873Z,23.70
2018-04-10T16:48:48.173Z,23.67
2018-04-10T16:51:16.956Z,24.16
2018-04-10T16:53:45.989Z,23.83
2018-04-10T16:56:14.769Z,23.55
2018-04-10T16:58:43.062Z,23.41
2018-04-10T17:01:11.560Z,23.29
2018-04-10T17:03:40.172Z,23.14
2018-04-10T17:06:09.035Z,23.09
2018-04-10T17:08:37.357Z,23.00
2018-04-10T17:11:05.775Z,22.92
2018-04-10T17:13:34.242Z,22.89
2018-04-10T17:16:03.055Z,22.79
2018-04-10T17:18:31.952Z,22.68
2018-04-10T17:21:00.474Z,22.55
2018-04-10T17:23:30.329Z,22.56
2018-04-10T17:25:59.898Z,22.37
2018-04-10T17:28:28.364Z,22.35
2018-04-10T17:30:58.612Z,22.27
2018-04-10T17:33:27.096Z,22.30
2018-04-10T17:35:55.874Z,22.19
2018-04-10T17:38:26.015Z,22.16
2018-04-10T17:40:55.891Z,21.88
2018-04-10T17:43:25.617Z,22.04
2018-04-10T17:45:54.733Z,21.92
2018-04-10T17:48:23.581Z,21.72
2018-04-10T17:50:53.286Z,21.72
2018-04-10T17:53:23.707Z,21.63
2018-04-10T17:55:52.714Z,21.64
2018-04-10T17:58:21.435Z,21.53
2018-04-10T18:00:50.773Z,21.28
2018-04-10T18:03:19.541Z,21.13
2018-04-10T18:05:48.407Z,21.32
2018-04-10T18:08:17.018Z,21.21
2018-04-10T18:10:45.733Z,21.17
2018-04-10T18:13:14.470Z,21.02
2018-04-10T18:15:43.504Z,21.01
2018-04-10T18:18:12.821Z,20.79
2018-04-10T18:20:41.174Z,20.91
2018-04-10T18:23:09.713Z,20.77
2018-04-10T18:25:38.737Z,20.75
2018-04-10T18:28:07.056Z,20.57
2018-04-10T18:30:35.482Z,20.57
2018-04-10T18:33:04.138Z,20.43
2018-04-10T18:35:32.699Z,20.57
2018-04-10T18:38:01.118Z,20.65
2018-04-10T18:40:29.607Z,20.37
2018-04-10T18:42:57.923Z,20.46
2018-04-10T18:45:26.937Z,20.55
2018-04-10T18:47:55.339Z,20.22
2018-04-10T18:50:23.945Z,20.25
2018-04-10T18:52:52.318Z,20.32
2018-04-10T18:55:21.149Z,20.08
2018-04-10T18:57:49.578Z,20.02
2018-04-10T19:00:18.122Z,20.04
2018-04-10T19:02:46.788Z,20.07
2018-04-10T19:05:15.705Z,20.00
2018-04-10T19:07:46.914Z,19.88
2018-04-10T19:10:16.185Z,19.50
2018-04-10T19:12:45.010Z,19.34
2018-04-10T19:15:13.601Z,19.28
2018-04-10T19:17:41.893Z,18.99
2018-04-10T19:20:10.641Z,19.06
2018-04-10T19:22:39.062Z,18.98
2018-04-10T19:25:07.886Z,18.95
2018-04-10T19:27:36.218Z,18.84
2018-04-10T19:30:07.331Z,18.82
2018-04-10T19:32:37.015Z,18.59
2018-04-10T19:35:06.246Z,18.34
2018-04-10T19:37:34.692Z,17.98
2018-04-10T19:40:03.056Z,17.77
2018-04-10T19:42:31.966Z,17.56
2018-04-10T19:45:01.010Z,17.39
2018-04-10T19:47:29.929Z,17.24
2018-04-10T19:49:58.591Z,17.02
2018-04-10T19:52:27.679Z,16.95
2018-04-10T19:54:57.170Z,16.77
2018-04-10T19:57:25.706Z,16.69
2018-04-10T19:59:54.339Z,16.60
2018-04-10T20:02:22.973Z,16.53
2018-04-10T20:04:51.585Z,16.38
2018-04-10T20:07:20.387Z,16.24
2018-04-10T20:09:49.614Z,16.19
2018-04-10T20:12:18.867Z,16.07
2018-04-10T20:14:47.803Z,16.10
2018-04-10T20:17:16.330Z,16.01
2018-04-10T20:19:44.966Z,15.92
2018-04-10T20:22:14.080Z,15.89
2018-04-10T20:27:10.262Z,15.82
2018-04-10T20:29:38.921Z,15.77
2018-04-10T20:32:07.566Z,15.75
2018-04-10T20:34:36.346Z,15.65
2018-04-10T20:37:05.281Z,15.56
2018-04-10T20:39:34.062Z,15.52
2018-04-10T20:42:02.588Z,15.44
2018-04-10T20:44:31.391Z,15.36
2018-04-10T20:47:00.815Z,15.41
2018-04-10T20:49:29.552Z,15.39
2018-04-10T20:52:00.262Z,15.40
2018-04-10T20:54:29.225Z,15.39
2018-04-10T20:56:58.521Z,15.34
2018-04-10T20:59:27.570Z,15.41
